Avalon, New Jersey
Current Conditions -  °F | °C
As of 5:15 AM on Sunday 23 Nov 2014 (Local Time) from KWWD Reporting Station
Clear Clear  
Wind Chill: 36°   Ceiling: Unl
Heat Index: 43°   Visibility: 10mi
Dew Point: 25°   Wind: 13mph
Humidity: 49%   Direction: 210°SSW
Pressure: 30.22"   Gusts: NA
Location:  39.1°N, 74.72°W
Report Text: KWWD 231015Z AUTO 21011KT 10SM CLR 06/M04 A3022 RMK AO1
Loading
Personal Weather Stations






























Interactive Weather Map New forecast layout! Learn more

10-Day Weather Forecast

Advertisements
Track Severe Weather on mobile